createdAt,value
2018-04-22T00:00:34.478Z,4.80
2018-04-22T00:01:09.991Z,4.80
2018-04-22T00:01:45.680Z,5.20
2018-04-22T00:02:21.009Z,5.80
2018-04-22T00:02:56.598Z,5.80
2018-04-22T00:03:32.031Z,4.80
2018-04-22T00:04:07.331Z,4.00
2018-04-22T00:04:42.658Z,4.70
2018-04-22T00:05:17.763Z,4.90
2018-04-22T00:05:52.893Z,5.10
2018-04-22T00:06:28.173Z,5.10
2018-04-22T00:07:03.377Z,5.00
2018-04-22T00:07:38.664Z,4.80
2018-04-22T00:08:14.079Z,5.00
2018-04-22T00:08:49.312Z,4.80
2018-04-22T00:09:24.944Z,4.30
2018-04-22T00:10:00.245Z,4.20
2018-04-22T00:10:35.479Z,4.80
2018-04-22T00:11:10.587Z,4.50
2018-04-22T00:11:45.692Z,4.20
2018-04-22T00:12:20.894Z,5.00
2018-04-22T00:12:56.225Z,4.90
2018-04-22T00:13:31.447Z,5.20
2018-04-22T00:14:06.779Z,5.00
2018-04-22T00:14:42.078Z,5.30
2018-04-22T00:15:17.616Z,4.90
2018-04-22T00:15:53.324Z,4.50
2018-04-22T00:16:28.751Z,4.70
2018-04-22T00:17:04.140Z,4.90
2018-04-22T00:17:39.661Z,5.10
2018-04-22T00:18:14.954Z,5.40
2018-04-22T00:18:50.289Z,5.30
2018-04-22T00:19:25.534Z,5.40
2018-04-22T00:20:00.872Z,5.50
2018-04-22T00:20:36.488Z,4.70
2018-04-22T00:21:11.633Z,4.80
2018-04-22T00:21:47.232Z,4.70
2018-04-22T00:22:22.848Z,5.30
2018-04-22T00:22:58.249Z,5.60
2018-04-22T00:23:33.565Z,5.00
2018-04-22T00:24:08.949Z,4.90
2018-04-22T00:24:45.520Z,4.80
2018-04-22T00:25:20.817Z,5.10
2018-04-22T00:25:56.260Z,4.60
2018-04-22T00:26:31.769Z,5.10
2018-04-22T00:27:06.988Z,5.20
2018-04-22T00:27:42.397Z,4.80
2018-04-22T00:28:17.698Z,4.60
2018-04-22T00:28:52.978Z,4.70
2018-04-22T00:29:28.518Z,4.60
2018-04-22T00:30:03.851Z,4.80
2018-04-22T00:30:40.198Z,4.60
2018-04-22T00:31:15.498Z,4.90
2018-04-22T00:31:50.829Z,4.90
2018-04-22T00:32:26.025Z,4.60
2018-04-22T00:33:01.365Z,5.00
2018-04-22T00:33:36.651Z,4.70
2018-04-22T00:34:11.870Z,5.20
2018-04-22T00:34:47.085Z,5.60
2018-04-22T00:35:22.553Z,4.80
2018-04-22T00:35:57.864Z,4.60
2018-04-22T00:36:33.369Z,4.60
2018-04-22T00:37:08.749Z,4.70
2018-04-22T00:37:44.279Z,5.30
2018-04-22T00:38:19.718Z,4.80
2018-04-22T00:38:55.138Z,4.50
2018-04-22T00:39:30.324Z,4.60
2018-04-22T00:40:05.953Z,4.70
2018-04-22T00:40:41.462Z,4.90
2018-04-22T00:41:17.096Z,5.00
2018-04-22T00:41:52.384Z,4.70
2018-04-22T00:42:27.691Z,4.50
2018-04-22T00:43:03.082Z,4.70
2018-04-22T00:43:38.390Z,4.70
2018-04-22T00:44:13.784Z,4.90
2018-04-22T00:44:49.013Z,5.10
2018-04-22T00:45:24.205Z,5.00
2018-04-22T00:45:59.476Z,5.20
2018-04-22T00:46:34.664Z,4.90
2018-04-22T00:47:09.998Z,4.80
2018-04-22T00:47:45.101Z,4.80
2018-04-22T00:48:20.826Z,5.10
2018-04-22T00:48:56.215Z,5.00
2018-04-22T00:49:31.735Z,5.20
2018-04-22T00:50:06.826Z,5.30
2018-04-22T00:50:42.394Z,5.40
2018-04-22T00:51:17.804Z,5.50
2018-04-22T00:51:53.230Z,5.00
2018-04-22T00:52:28.707Z,4.80
2018-04-22T00:53:04.262Z,5.30
2018-04-22T00:53:39.686Z,5.60
2018-04-22T00:54:15.524Z,5.50
2018-04-22T00:54:51.147Z,5.60
2018-04-22T00:55:26.459Z,5.50
2018-04-22T00:56:01.765Z,4.90
2018-04-22T00:56:37.184Z,5.10
2018-04-22T00:57:12.302Z,5.40
2018-04-22T00:57:47.639Z,5.10
2018-04-22T00:58:22.963Z,5.00
2018-04-22T00:58:58.201Z,5.10
2018-04-22T00:59:33.804Z,5.10
2018-04-22T01:00:09.240Z,5.30
2018-04-22T01:00:44.548Z,5.00
2018-04-22T01:01:19.815Z,5.20
2018-04-22T01:01:54.911Z,5.30
2018-04-22T01:02:30.347Z,5.00
2018-04-22T01:03:05.668Z,5.30
2018-04-22T01:03:40.836Z,5.10
2018-04-22T01:04:16.313Z,5.00
2018-04-22T01:04:53.937Z,5.50
2018-04-22T01:05:29.244Z,5.70
2018-04-22T01:06:04.571Z,5.40
2018-04-22T01:06:40.803Z,5.20
2018-04-22T01:07:15.944Z,5.30
2018-04-22T01:07:51.351Z,5.00
2018-04-22T01:08:26.663Z,5.40
2018-04-22T01:09:01.857Z,5.40
2018-04-22T01:09:37.101Z,5.00
2018-04-22T01:10:12.692Z,4.70
2018-04-22T01:10:50.118Z,4.90
2018-04-22T01:11:25.512Z,5.30
2018-04-22T01:12:01.165Z,5.30
2018-04-22T01:12:37.364Z,5.30
2018-04-22T01:13:12.732Z,4.90
2018-04-22T01:13:48.094Z,4.90
2018-04-22T01:14:23.333Z,4.80
2018-04-22T01:14:58.521Z,5.40
2018-04-22T01:15:33.838Z,5.80
2018-04-22T01:16:09.347Z,5.40
2018-04-22T01:16:44.707Z,4.90
2018-04-22T01:17:20.021Z,5.10
2018-04-22T01:17:58.534Z,5.20
2018-04-22T01:18:34.036Z,5.50
2018-04-22T01:19:09.770Z,5.20
2018-04-22T01:19:45.080Z,5.20
2018-04-22T01:20:20.437Z,5.10
2018-04-22T01:20:55.630Z,5.10
2018-04-22T01:21:31.048Z,5.20
2018-04-22T01:22:06.376Z,5.60
2018-04-22T01:22:41.733Z,5.50
2018-04-22T01:23:16.923Z,4.90
2018-04-22T01:23:52.249Z,5.10
2018-04-22T01:24:27.668Z,5.00
2018-04-22T01:25:02.796Z,5.00
2018-04-22T01:25:38.371Z,5.50
2018-04-22T01:26:14.188Z,5.80
2018-04-22T01:26:49.282Z,5.70
2018-04-22T01:27:24.531Z,5.70
2018-04-22T01:27:59.737Z,5.50
2018-04-22T01:28:35.066Z,5.50
2018-04-22T01:29:10.551Z,5.30
2018-04-22T01:29:45.879Z,5.70
2018-04-22T01:30:21.184Z,5.20
2018-04-22T01:30:56.917Z,5.20
2018-04-22T01:31:32.323Z,5.20
2018-04-22T01:32:07.688Z,5.60
2018-04-22T01:32:43.025Z,5.20
2018-04-22T01:33:18.141Z,4.90
2018-04-22T01:33:53.352Z,5.30
2018-04-22T01:34:28.486Z,5.70
2018-04-22T01:35:03.982Z,5.80
2018-04-22T01:35:40.004Z,5.50
2018-04-22T01:36:15.320Z,5.10
2018-04-22T01:36:50.545Z,5.30
2018-04-22T01:37:25.967Z,5.20
2018-04-22T01:38:01.352Z,5.70
2018-04-22T01:38:36.845Z,5.40
2018-04-22T01:39:12.159Z,5.10
2018-04-22T01:39:47.448Z,5.30
2018-04-22T01:40:23.363Z,5.00
2018-04-22T01:40:58.772Z,5.00
2018-04-22T01:41:34.293Z,5.10
2018-04-22T01:42:09.490Z,5.70
2018-04-22T01:42:44.962Z,6.00
2018-04-22T01:43:20.403Z,5.60
2018-04-22T01:43:55.719Z,5.40
2018-04-22T01:44:30.916Z,5.50
2018-04-22T01:45:06.340Z,5.60
2018-04-22T01:45:41.657Z,5.20
2018-04-22T01:46:17.069Z,5.90
2018-04-22T01:46:52.477Z,5.80
2018-04-22T01:47:27.718Z,5.10
2018-04-22T01:48:03.117Z,5.20
2018-04-22T01:48:38.557Z,5.40
2018-04-22T01:49:13.840Z,5.20
2018-04-22T01:49:49.468Z,5.10
2018-04-22T01:50:24.648Z,5.40
2018-04-22T01:50:59.970Z,5.30
2018-04-22T01:51:35.302Z,5.10
2018-04-22T01:52:10.621Z,4.80
2018-04-22T01:52:46.146Z,5.10
2018-04-22T01:53:21.474Z,5.10
2018-04-22T01:53:56.904Z,5.60
2018-04-22T01:54:32.459Z,5.40
2018-04-22T01:55:07.966Z,4.50
2018-04-22T01:55:43.078Z,5.10
2018-04-22T01:56:18.684Z,5.30
2018-04-22T01:56:54.119Z,5.40
2018-04-22T01:57:29.619Z,5.30
2018-04-22T01:58:05.049Z,5.10
2018-04-22T01:58:40.566Z,5.90
2018-04-22T01:59:16.007Z,5.80
2018-04-22T01:59:51.420Z,5.30
2018-04-22T02:00:26.580Z,5.30
2018-04-22T02:01:01.973Z,5.10
2018-04-22T02:01:37.123Z,5.50
2018-04-22T02:02:12.632Z,5.10
2018-04-22T02:02:47.842Z,5.40
2018-04-22T02:03:23.029Z,5.70
2018-04-22T02:03:58.269Z,5.80
2018-04-22T02:04:33.363Z,5.80
2018-04-22T02:05:08.792Z,5.30
2018-04-22T02:05:43.999Z,5.80
2018-04-22T02:06:19.247Z,5.70
2018-04-22T02:06:54.849Z,5.90
2018-04-22T02:07:30.281Z,6.50
2018-04-22T02:08:05.680Z,5.00
2018-04-22T02:08:41.003Z,5.20
2018-04-22T02:09:16.528Z,5.40
2018-04-22T02:09:52.032Z,5.50
2018-04-22T02:10:27.265Z,5.90
2018-04-22T02:11:02.886Z,5.90
2018-04-22T02:11:38.026Z,6.00
2018-04-22T02:12:13.458Z,5.50
2018-04-22T02:12:48.557Z,5.80
2018-04-22T02:13:23.991Z,5.70
2018-04-22T02:13:59.609Z,5.80
2018-04-22T02:14:34.747Z,6.10
2018-04-22T02:15:10.054Z,6.20
2018-04-22T02:15:45.276Z,5.70
2018-04-22T02:16:20.585Z,5.10
2018-04-22T02:16:55.906Z,5.60
2018-04-22T02:17:31.294Z,5.80
2018-04-22T02:18:06.730Z,5.50
2018-04-22T02:18:41.819Z,5.60
2018-04-22T02:19:17.378Z,6.20
2018-04-22T02:19:52.364Z,6.10
2018-04-22T02:20:27.773Z,6.10
2018-04-22T02:21:03.093Z,5.80
2018-04-22T02:21:38.235Z,5.70
2018-04-22T02:22:13.533Z,5.80
2018-04-22T02:22:48.854Z,6.00
2018-04-22T02:23:24.249Z,5.90
2018-04-22T02:23:59.799Z,5.70
2018-04-22T02:24:35.091Z,5.50
2018-04-22T02:25:10.454Z,5.30
2018-04-22T02:25:45.749Z,5.40
2018-04-22T02:26:21.289Z,5.50
2018-04-22T02:26:58.490Z,5.90
2018-04-22T02:27:34.122Z,5.90
2018-04-22T02:28:09.911Z,6.60
2018-04-22T02:28:45.222Z,6.50
2018-04-22T02:29:20.851Z,5.70
2018-04-22T02:29:56.275Z,5.60
2018-04-22T02:30:31.365Z,5.20
2018-04-22T02:31:06.797Z,6.00
2018-04-22T02:31:42.108Z,6.10
2018-04-22T02:32:17.321Z,6.30
2018-04-22T02:32:52.921Z,5.60
2018-04-22T02:33:28.457Z,5.80
2018-04-22T02:34:03.990Z,5.30
2018-04-22T02:34:39.515Z,5.90
2018-04-22T02:35:14.823Z,5.80
2018-04-22T02:35:51.352Z,5.90
2018-04-22T02:36:26.742Z,6.10
2018-04-22T02:37:01.979Z,5.80
2018-04-22T02:37:37.172Z,6.20
2018-04-22T02:38:12.722Z,6.70
2018-04-22T02:38:48.329Z,6.60
2018-04-22T02:39:23.755Z,5.90
2018-04-22T02:39:58.967Z,5.90
2018-04-22T02:40:34.392Z,6.30
2018-04-22T02:41:09.779Z,6.40
2018-04-22T02:41:45.112Z,6.50
2018-04-22T02:42:20.596Z,6.50
2018-04-22T02:42:55.646Z,6.40
2018-04-22T02:43:31.284Z,6.60
2018-04-22T02:44:06.614Z,6.90
2018-04-22T02:44:41.825Z,6.60
2018-04-22T02:45:17.263Z,6.50
2018-04-22T02:45:52.685Z,6.70
2018-04-22T02:46:27.944Z,7.00
2018-04-22T02:47:03.553Z,7.10
2018-04-22T02:47:38.979Z,6.80
2018-04-22T02:48:14.701Z,6.30
2018-04-22T02:48:50.010Z,6.10
2018-04-22T02:49:25.352Z,6.00
2018-04-22T02:50:00.757Z,5.80
2018-04-22T02:50:36.241Z,6.00
2018-04-22T02:51:11.549Z,6.30
2018-04-22T02:51:47.002Z,6.80
2018-04-22T02:52:22.328Z,6.40
2018-04-22T02:52:57.510Z,6.90
2018-04-22T02:53:32.839Z,7.40
2018-04-22T02:54:07.934Z,6.50
2018-04-22T02:54:43.296Z,6.20
2018-04-22T02:55:18.678Z,6.10
2018-04-22T02:55:54.318Z,6.20
2018-04-22T02:56:29.497Z,6.60
2018-04-22T02:57:04.702Z,6.90
2018-04-22T02:57:40.000Z,6.20
2018-04-22T02:58:15.447Z,7.60
2018-04-22T02:58:50.942Z,8.10
2018-04-22T02:59:26.385Z,8.70
2018-04-22T03:00:01.808Z,10.20
2018-04-22T03:00:38.434Z,9.20
2018-04-22T03:01:13.740Z,7.30
2018-04-22T03:01:49.176Z,6.20
2018-04-22T03:02:24.169Z,6.60
2018-04-22T03:02:59.476Z,6.20
2018-04-22T03:03:36.173Z,6.60
2018-04-22T03:04:11.391Z,7.20
2018-04-22T03:04:46.609Z,7.10
2018-04-22T03:05:22.181Z,6.70
2018-04-22T03:05:57.219Z,6.50
2018-04-22T03:06:32.639Z,7.60
2018-04-22T03:07:07.968Z,7.70
2018-04-22T03:07:43.302Z,6.50
2018-04-22T03:08:18.819Z,6.70
2018-04-22T03:08:54.039Z,6.50
2018-04-22T03:09:29.264Z,6.80
2018-04-22T03:10:05.010Z,7.00
2018-04-22T03:10:40.719Z,6.80
2018-04-22T03:11:16.141Z,6.90
2018-04-22T03:11:51.441Z,7.00
2018-04-22T03:12:26.775Z,7.70
2018-04-22T03:13:02.179Z,7.40
2018-04-22T03:13:37.497Z,6.90
2018-04-22T03:14:12.996Z,7.40
2018-04-22T03:14:48.478Z,8.30
2018-04-22T03:15:23.674Z,8.40
2018-04-22T03:15:59.210Z,7.60
2018-04-22T03:16:34.593Z,7.30
2018-04-22T03:17:10.017Z,7.20
2018-04-22T03:17:45.414Z,7.20
2018-04-22T03:18:21.052Z,6.60
2018-04-22T03:18:56.343Z,6.80
2018-04-22T03:19:31.720Z,7.40
2018-04-22T03:20:07.733Z,6.80
2018-04-22T03:20:43.659Z,7.00
2018-04-22T03:21:19.076Z,7.00
2018-04-22T03:21:54.285Z,6.20
2018-04-22T03:22:29.567Z,6.90
2018-04-22T03:23:05.110Z,7.10
2018-04-22T03:23:40.505Z,7.50
2018-04-22T03:24:16.066Z,7.30
2018-04-22T03:24:53.814Z,7.30
2018-04-22T03:25:29.249Z,7.50
2018-04-22T03:26:04.540Z,6.70
2018-04-22T03:26:39.775Z,6.50
2018-04-22T03:27:15.176Z,7.20
2018-04-22T03:27:50.537Z,7.00
2018-04-22T03:28:26.028Z,7.00
2018-04-22T03:29:01.366Z,6.70
2018-04-22T03:29:36.655Z,6.30
2018-04-22T03:30:12.098Z,6.90
2018-04-22T03:30:47.290Z,7.50
2018-04-22T03:31:22.750Z,7.10
2018-04-22T03:31:58.334Z,6.80
2018-04-22T03:32:33.860Z,7.00
2018-04-22T03:33:09.245Z,7.40
2018-04-22T03:33:44.379Z,6.90
2018-04-22T03:34:19.651Z,6.70
2018-04-22T03:34:54.793Z,6.50
2018-04-22T03:35:29.899Z,6.50
2018-04-22T03:36:05.251Z,7.30
2018-04-22T03:36:40.469Z,7.30
2018-04-22T03:37:15.814Z,7.50
2018-04-22T03:37:51.018Z,7.30
2018-04-22T03:38:26.654Z,7.60
2018-04-22T03:39:02.133Z,7.50
2018-04-22T03:39:37.379Z,7.30
2018-04-22T03:40:13.020Z,6.50
2018-04-22T03:40:48.245Z,6.90
2018-04-22T03:41:23.924Z,7.00
2018-04-22T03:41:59.136Z,7.10
2018-04-22T03:42:34.439Z,7.10
2018-04-22T03:43:09.942Z,7.10
2018-04-22T03:43:45.139Z,7.30
2018-04-22T03:44:20.566Z,7.50
2018-04-22T03:44:56.166Z,7.90
2018-04-22T03:45:31.580Z,7.30
2018-04-22T03:46:06.892Z,6.90
2018-04-22T03:46:42.238Z,6.90
2018-04-22T03:47:17.738Z,7.30
2018-04-22T03:47:53.173Z,7.70
2018-04-22T03:48:28.460Z,7.40
2018-04-22T03:49:03.813Z,7.80
2018-04-22T03:49:39.188Z,7.40
2018-04-22T03:50:14.848Z,6.90
2018-04-22T03:50:50.350Z,7.30
2018-04-22T03:51:25.491Z,8.10
2018-04-22T03:52:00.715Z,8.40
2018-04-22T03:52:36.033Z,7.50
2018-04-22T03:53:11.363Z,7.90
2018-04-22T03:53:46.595Z,7.90
2018-04-22T03:54:21.892Z,7.20
2018-04-22T03:54:57.244Z,7.50
2018-04-22T03:55:32.635Z,7.70
2018-04-22T03:56:08.071Z,7.30
2018-04-22T03:56:43.382Z,7.20
2018-04-22T03:57:18.831Z,7.70
2018-04-22T03:57:54.232Z,7.70
2018-04-22T03:58:29.656Z,7.00
2018-04-22T03:59:05.041Z,7.20
2018-04-22T03:59:40.659Z,7.00
2018-04-22T04:00:15.967Z,7.40
2018-04-22T04:00:51.612Z,7.90
2018-04-22T04:01:27.004Z,7.20
2018-04-22T04:02:02.442Z,7.50
2018-04-22T04:02:37.675Z,7.10
2018-04-22T04:03:12.886Z,7.80
2018-04-22T04:03:48.569Z,8.30
2018-04-22T04:04:24.039Z,7.70
2018-04-22T04:04:59.234Z,7.80
2018-04-22T04:05:35.596Z,7.90
2018-04-22T04:06:11.013Z,8.10
2018-04-22T04:06:46.481Z,7.40
2018-04-22T04:07:21.980Z,8.40
2018-04-22T04:07:57.426Z,7.50
2018-04-22T04:08:32.712Z,7.00
2018-04-22T04:09:07.930Z,7.70
2018-04-22T04:09:43.241Z,7.80
2018-04-22T04:10:18.575Z,7.90
2018-04-22T04:10:53.873Z,7.80
2018-04-22T04:11:29.202Z,7.60
2018-04-22T04:12:04.626Z,7.40
2018-04-22T04:12:40.746Z,7.70
2018-04-22T04:13:16.140Z,8.20
2018-04-22T04:13:51.346Z,8.20
2018-04-22T04:14:26.858Z,8.90
2018-04-22T04:15:02.279Z,8.20
2018-04-22T04:15:37.606Z,7.40
2018-04-22T04:16:13.033Z,7.20
2018-04-22T04:16:48.442Z,7.20
2018-04-22T04:17:23.867Z,7.10
2018-04-22T04:17:58.970Z,7.80
2018-04-22T04:18:34.302Z,7.70
2018-04-22T04:19:09.595Z,7.90
2018-04-22T04:19:44.925Z,7.50
2018-04-22T04:20:20.251Z,7.00
2018-04-22T04:20:55.794Z,7.40
2018-04-22T04:21:31.081Z,7.70
2018-04-22T04:22:06.220Z,8.20
2018-04-22T04:22:41.827Z,8.10
2018-04-22T04:23:17.041Z,8.00
2018-04-22T04:23:52.222Z,7.60
2018-04-22T04:24:27.546Z,7.40
2018-04-22T04:25:03.244Z,7.30
2018-04-22T04:25:38.697Z,7.60
2018-04-22T04:26:14.209Z,8.30
2018-04-22T04:26:49.419Z,8.50
2018-04-22T04:27:24.707Z,8.10
2018-04-22T04:28:00.032Z,8.00
2018-04-22T04:28:35.222Z,7.80
2018-04-22T04:29:10.542Z,7.90
2018-04-22T04:29:45.824Z,8.30
2018-04-22T04:30:21.067Z,7.80
2018-04-22T04:30:56.380Z,7.70
2018-04-22T04:31:31.892Z,6.90
2018-04-22T04:32:07.182Z,8.20
2018-04-22T04:32:42.517Z,8.70
2018-04-22T04:33:17.928Z,8.00
2018-04-22T04:33:53.205Z,7.40
2018-04-22T04:34:28.697Z,7.20
2018-04-22T04:35:04.156Z,7.50
2018-04-22T04:35:39.773Z,7.50
2018-04-22T04:36:15.207Z,7.40
2018-04-22T04:36:50.517Z,8.00
2018-04-22T04:37:25.855Z,8.10
2018-04-22T04:38:01.336Z,7.70
2018-04-22T04:38:36.560Z,7.80
2018-04-22T04:39:11.885Z,8.00
2018-04-22T04:39:47.210Z,7.50
2018-04-22T04:40:22.701Z,7.30
2018-04-22T04:40:57.950Z,7.40
2018-04-22T04:41:33.445Z,7.60
2018-04-22T04:42:08.995Z,7.90
2018-04-22T04:42:44.436Z,8.70
2018-04-22T04:43:19.991Z,8.20
2018-04-22T04:43:55.301Z,7.60
2018-04-22T04:44:30.616Z,8.00
2018-04-22T04:45:06.216Z,7.60
2018-04-22T04:45:41.547Z,7.30
2018-04-22T04:46:17.135Z,7.50
2018-04-22T04:46:52.583Z,8.30
2018-04-22T04:47:27.809Z,8.40
2018-04-22T04:48:03.021Z,8.00
2018-04-22T04:48:38.217Z,7.70
2018-04-22T04:49:13.638Z,7.60
2018-04-22T04:49:49.033Z,7.90
2018-04-22T04:50:24.551Z,8.00
2018-04-22T04:50:59.701Z,7.70
2018-04-22T04:51:35.254Z,7.80
2018-04-22T04:52:10.848Z,8.10
2018-04-22T04:52:46.053Z,7.20
2018-04-22T04:53:21.168Z,7.00
2018-04-22T04:53:56.696Z,7.30
2018-04-22T04:54:32.307Z,7.70
2018-04-22T04:55:07.442Z,7.60
2018-04-22T04:55:43.060Z,7.20
2018-04-22T04:56:18.393Z,7.30
2018-04-22T04:56:54.180Z,7.70
2018-04-22T04:57:29.682Z,7.80
2018-04-22T04:58:05.009Z,7.80
2018-04-22T04:58:40.652Z,8.10
2018-04-22T04:59:16.333Z,8.20
2018-04-22T04:59:51.753Z,7.40
2018-04-22T05:00:26.927Z,7.40
2018-04-22T05:01:02.059Z,7.60
2018-04-22T05:01:37.450Z,8.20
2018-04-22T05:02:13.067Z,8.00
2018-04-22T05:02:48.251Z,7.80
2018-04-22T05:03:23.672Z,8.10
2018-04-22T05:03:59.178Z,7.90
2018-04-22T05:04:34.592Z,7.80
2018-04-22T05:05:10.001Z,9.30
2018-04-22T05:05:45.821Z,9.90
2018-04-22T05:06:21.640Z,9.60
2018-04-22T05:06:57.172Z,8.90
2018-04-22T05:07:32.385Z,8.50
2018-04-22T05:08:07.926Z,8.10
2018-04-22T05:08:43.117Z,8.40
2018-04-22T05:09:18.443Z,9.90
2018-04-22T05:09:53.859Z,10.10
2018-04-22T05:10:29.320Z,8.30
2018-04-22T05:11:04.626Z,7.40
2018-04-22T05:11:39.965Z,7.60
2018-04-22T05:12:15.367Z,7.10
2018-04-22T05:12:50.700Z,7.40
2018-04-22T05:13:26.112Z,8.00
2018-04-22T05:14:01.738Z,8.10
2018-04-22T05:14:37.125Z,7.80
2018-04-22T05:15:12.238Z,7.40
2018-04-22T05:15:47.441Z,8.20
2018-04-22T05:16:22.583Z,9.00
2018-04-22T05:16:57.892Z,8.50
2018-04-22T05:17:33.417Z,8.30
2018-04-22T05:18:08.897Z,8.10
2018-04-22T05:18:44.097Z,7.90
2018-04-22T05:19:19.423Z,8.00
2018-04-22T05:19:54.751Z,7.90
2018-04-22T05:20:30.071Z,8.10
2018-04-22T05:21:05.447Z,8.40
2018-04-22T05:21:41.134Z,8.40
2018-04-22T05:22:16.355Z,8.10
2018-04-22T05:22:51.653Z,8.10
2018-04-22T05:23:27.105Z,7.90
2018-04-22T05:24:02.507Z,7.60
2018-04-22T05:24:38.024Z,8.00
2018-04-22T05:25:13.225Z,7.70
2018-04-22T05:25:48.970Z,7.90
2018-04-22T05:26:24.321Z,7.60
2018-04-22T05:26:59.526Z,8.00
2018-04-22T05:27:35.015Z,7.80
2018-04-22T05:28:10.238Z,7.60
2018-04-22T05:28:45.829Z,7.70
2018-04-22T05:29:21.150Z,7.70
2018-04-22T05:29:56.536Z,7.80
2018-04-22T05:30:31.956Z,7.40
2018-04-22T05:31:07.383Z,7.50
2018-04-22T05:31:42.898Z,8.00
2018-04-22T05:32:18.814Z,8.40
2018-04-22T05:32:54.458Z,8.30
2018-04-22T05:33:29.862Z,8.20
2018-04-22T05:34:05.199Z,7.60
2018-04-22T05:34:40.893Z,7.20
2018-04-22T05:35:16.421Z,7.50
2018-04-22T05:35:54.050Z,7.40
2018-04-22T05:36:29.405Z,7.50
2018-04-22T05:37:05.007Z,8.10
2018-04-22T05:37:40.417Z,8.50
2018-04-22T05:38:15.914Z,7.90
2018-04-22T05:38:51.232Z,8.40
2018-04-22T05:39:26.319Z,8.00
2018-04-22T05:40:01.730Z,7.80
2018-04-22T05:40:36.921Z,8.00
2018-04-22T05:41:12.381Z,7.80
2018-04-22T05:41:48.107Z,7.70
2018-04-22T05:42:23.709Z,7.70
2018-04-22T05:42:58.992Z,7.90
2018-04-22T05:43:34.214Z,7.90
2018-04-22T05:44:09.417Z,7.80
2018-04-22T05:44:44.633Z,7.60
2018-04-22T05:45:19.828Z,7.60
2018-04-22T05:45:55.141Z,8.00
2018-04-22T05:46:30.448Z,8.00
2018-04-22T05:47:05.568Z,7.70
2018-04-22T05:47:40.971Z,7.60
2018-04-22T05:48:16.389Z,7.70
2018-04-22T05:48:51.696Z,7.30
2018-04-22T05:49:27.140Z,7.60
2018-04-22T05:50:02.433Z,7.90
2018-04-22T05:50:37.545Z,8.10
2018-04-22T05:51:12.946Z,8.20
2018-04-22T05:51:48.614Z,7.60
2018-04-22T05:52:23.928Z,7.70
2018-04-22T05:52:59.248Z,7.40
2018-04-22T05:53:34.526Z,7.10
2018-04-22T05:54:09.648Z,6.90
2018-04-22T05:54:44.981Z,7.50
2018-04-22T05:55:20.523Z,7.70
2018-04-22T05:55:55.712Z,7.70
2018-04-22T05:56:31.081Z,7.60
2018-04-22T05:57:06.162Z,7.50
2018-04-22T05:57:41.390Z,8.00
2018-04-22T05:58:16.496Z,8.00
2018-04-22T05:58:51.846Z,7.80
2018-04-22T05:59:27.040Z,8.30
2018-04-22T06:00:02.692Z,9.00
2018-04-22T06:00:38.294Z,8.20
2018-04-22T06:01:13.611Z,7.30
2018-04-22T06:01:48.906Z,7.00
2018-04-22T06:02:24.268Z,7.00
2018-04-22T06:02:59.845Z,7.50
2018-04-22T06:03:35.291Z,7.80
2018-04-22T06:04:10.479Z,7.90
2018-04-22T06:04:45.698Z,7.90
2018-04-22T06:05:20.900Z,7.90
2018-04-22T06:05:56.519Z,7.80
2018-04-22T06:06:32.156Z,7.60
2018-04-22T06:07:07.614Z,7.70
2018-04-22T06:07:42.920Z,7.80
2018-04-22T06:08:17.961Z,7.90
2018-04-22T06:08:56.574Z,7.60
2018-04-22T06:09:31.808Z,7.40
2018-04-22T06:10:07.668Z,7.60
2018-04-22T06:10:43.068Z,7.70
2018-04-22T06:11:18.061Z,7.10
2018-04-22T06:11:53.504Z,7.30
2018-04-22T06:12:28.918Z,7.50
2018-04-22T06:13:04.563Z,7.60
2018-04-22T06:13:39.960Z,7.00
2018-04-22T06:14:15.467Z,6.80
2018-04-22T06:14:50.992Z,7.70
2018-04-22T06:15:26.288Z,8.10
2018-04-22T06:16:01.308Z,7.10
2018-04-22T06:16:37.069Z,6.90
2018-04-22T06:17:12.675Z,7.20
2018-04-22T06:17:48.025Z,7.20
2018-04-22T06:18:23.420Z,6.90
2018-04-22T06:18:59.064Z,7.30
2018-04-22T06:19:34.345Z,7.90
2018-04-22T06:20:09.869Z,7.60
2018-04-22T06:20:44.864Z,7.60
2018-04-22T06:21:20.347Z,7.60
2018-04-22T06:21:55.791Z,7.50
2018-04-22T06:22:31.302Z,7.40
2018-04-22T06:23:06.307Z,7.30
2018-04-22T06:23:41.635Z,7.30
2018-04-22T06:24:17.142Z,7.20
2018-04-22T06:24:52.360Z,7.30
2018-04-22T06:25:27.487Z,7.60
2018-04-22T06:26:03.009Z,7.50
2018-04-22T06:26:38.394Z,7.40
2018-04-22T06:27:13.861Z,7.00
2018-04-22T06:27:49.456Z,7.70
2018-04-22T06:28:24.795Z,8.10
2018-04-22T06:29:01.600Z,8.10
2018-04-22T06:29:36.943Z,8.20
2018-04-22T06:30:12.448Z,7.60
2018-04-22T06:30:47.788Z,7.60
2018-04-22T06:31:23.091Z,7.50
2018-04-22T06:31:58.244Z,7.60
2018-04-22T06:32:34.143Z,7.90
2018-04-22T06:33:09.680Z,8.00
2018-04-22T06:33:44.975Z,7.60
2018-04-22T06:34:20.731Z,7.30
2018-04-22T06:34:56.354Z,7.80
2018-04-22T06:35:31.565Z,8.00
2018-04-22T06:36:07.049Z,7.60
2018-04-22T06:36:42.455Z,7.30
2018-04-22T06:37:17.897Z,7.40
2018-04-22T06:37:53.222Z,7.40
2018-04-22T06:38:28.527Z,7.90
2018-04-22T06:39:03.636Z,7.80
2018-04-22T06:39:39.034Z,7.60
2018-04-22T06:40:14.596Z,7.80
2018-04-22T06:40:50.000Z,8.10
2018-04-22T06:41:25.339Z,8.10
2018-04-22T06:42:00.901Z,8.00
2018-04-22T06:42:36.646Z,8.10
2018-04-22T06:43:12.127Z,8.20
2018-04-22T06:43:49.740Z,8.30
2018-04-22T06:44:25.254Z,8.10
2018-04-22T06:45:00.575Z,8.20
2018-04-22T06:45:35.867Z,8.10
2018-04-22T06:46:11.468Z,7.70
2018-04-22T06:46:46.608Z,8.40
2018-04-22T06:47:22.058Z,8.90
2018-04-22T06:47:57.567Z,8.10
2018-04-22T06:48:32.783Z,8.40
2018-04-22T06:49:08.192Z,8.40
2018-04-22T06:49:43.297Z,8.30
2018-04-22T06:50:18.697Z,8.30
2018-04-22T06:50:54.423Z,8.30
2018-04-22T06:51:29.525Z,7.90
2018-04-22T06:52:04.892Z,8.00
2018-04-22T06:52:40.193Z,8.90
2018-04-22T06:53:15.569Z,9.10
2018-04-22T06:53:50.831Z,9.00
2018-04-22T06:54:26.061Z,8.80
2018-04-22T06:55:01.587Z,9.10
2018-04-22T06:55:37.211Z,8.60
2018-04-22T06:56:12.441Z,8.90
2018-04-22T06:56:47.893Z,9.30
2018-04-22T06:57:23.017Z,8.80
2018-04-22T06:57:58.469Z,8.80
2018-04-22T06:58:33.861Z,8.20
2018-04-22T06:59:08.982Z,8.20
2018-04-22T06:59:44.286Z,9.60
2018-04-22T07:00:19.425Z,9.90
2018-04-22T07:00:54.744Z,8.90
2018-04-22T07:01:30.476Z,9.30
2018-04-22T07:02:05.861Z,9.70
2018-04-22T07:02:41.314Z,9.90
2018-04-22T07:03:16.713Z,10.10
2018-04-22T07:03:52.076Z,9.70
2018-04-22T07:04:27.271Z,9.50
2018-04-22T07:05:03.808Z,9.40
2018-04-22T07:05:39.712Z,9.00
2018-04-22T07:06:15.026Z,9.70
2018-04-22T07:06:50.209Z,10.80
2018-04-22T07:07:25.682Z,10.60
2018-04-22T07:08:01.168Z,10.90
2018-04-22T07:08:38.428Z,10.30
2018-04-22T07:09:13.942Z,10.10
2018-04-22T07:09:49.313Z,10.10
2018-04-22T07:10:25.006Z,9.80
2018-04-22T07:11:00.437Z,9.60
2018-04-22T07:11:35.939Z,10.00
2018-04-22T07:12:11.170Z,10.30
2018-04-22T07:12:46.595Z,10.00
2018-04-22T07:13:22.028Z,10.30
2018-04-22T07:13:57.339Z,11.00
2018-04-22T07:14:32.864Z,10.70
2018-04-22T07:15:08.280Z,10.20
2018-04-22T07:15:43.798Z,10.20
2018-04-22T07:16:19.112Z,9.90
2018-04-22T07:16:54.361Z,10.30
2018-04-22T07:17:29.598Z,10.70
2018-04-22T07:18:05.217Z,10.50
2018-04-22T07:18:40.927Z,10.20
2018-04-22T07:19:16.575Z,9.70
2018-04-22T07:19:51.878Z,9.70
2018-04-22T07:20:27.232Z,9.90
2018-04-22T07:21:02.335Z,10.10
2018-04-22T07:21:37.562Z,10.80
2018-04-22T07:22:13.010Z,10.70
2018-04-22T07:22:48.373Z,10.60
2018-04-22T07:23:23.993Z,9.80
2018-04-22T07:23:59.335Z,9.30
2018-04-22T07:24:34.739Z,10.00
2018-04-22T07:25:10.272Z,10.20
2018-04-22T07:25:45.532Z,9.80
2018-04-22T07:26:20.817Z,9.30
2018-04-22T07:26:56.219Z,9.40
2018-04-22T07:27:31.379Z,9.20
2018-04-22T07:28:06.862Z,9.40
2018-04-22T07:28:42.380Z,9.90
2018-04-22T07:29:17.750Z,10.00
2018-04-22T07:29:53.020Z,9.70
2018-04-22T07:30:28.319Z,9.50
2018-04-22T07:31:03.548Z,10.20
2018-04-22T07:31:38.963Z,10.30
2018-04-22T07:32:14.412Z,9.60
2018-04-22T07:32:50.009Z,9.30
2018-04-22T07:33:25.438Z,9.30
2018-04-22T07:34:00.632Z,9.80
2018-04-22T07:34:35.772Z,10.00
2018-04-22T07:35:10.970Z,9.90
2018-04-22T07:35:46.090Z,10.10
2018-04-22T07:36:21.406Z,9.60
2018-04-22T07:36:56.627Z,9.40
2018-04-22T07:37:32.392Z,10.00
2018-04-22T07:38:07.643Z,9.80
2018-04-22T07:38:42.957Z,9.70
2018-04-22T07:39:18.304Z,9.80
2018-04-22T07:39:53.812Z,9.60
2018-04-22T07:40:29.040Z,9.90
2018-04-22T07:41:04.355Z,9.90
2018-04-22T07:41:39.581Z,10.40
2018-04-22T07:42:14.985Z,10.40
2018-04-22T07:42:50.738Z,10.10
2018-04-22T07:43:25.928Z,10.20
2018-04-22T07:44:01.691Z,9.90
2018-04-22T07:44:36.795Z,10.00
2018-04-22T07:45:12.127Z,10.10
2018-04-22T07:45:47.412Z,10.80
2018-04-22T07:46:22.751Z,10.90
2018-04-22T07:46:58.465Z,10.70
2018-04-22T07:47:34.196Z,10.40
2018-04-22T07:48:09.923Z,10.30
2018-04-22T07:48:45.082Z,11.00
2018-04-22T07:49:20.521Z,10.70
2018-04-22T07:49:55.867Z,10.30
2018-04-22T07:50:31.263Z,10.50